Kansas City, Missouri
Traffic Map
Current Weather Conditions
Kansas City, Missouri
Clear
Clear
72°
Feels Like: 72°
Wind Chill: 72° Ceiling: Unl
Heat Index: 72° Visibility: 10mi
Dew Point: 29° Wind: 8mph
Humidity: 20% Direction: 130° (SE)
Pressure: 29.91in Gusts: 0mph
Raw Report DataKMKC 010054Z 13007KT 10SM CLR 22/M02 A2991 RMK AO2 SLP123 T02221017
Traffic Incident Summary
Active as of:
Severity:
Category:
InformationThere was an issue retrieving the traffic information for this location. Please try a different location or try again shortly.
Advertisements
Track Severe Weather on mobile